sensor_id;sensor_type;location;lat;lon;timestamp;P1;durP1;ratioP1;P2;durP2;ratioP2
60700;SDS011;46541;49.894;10.886;2022-12-10T00:01:27;37.45;;;19.65;;
60700;SDS011;46541;49.894;10.886;2022-12-10T00:03:55;38.88;;;18.80;;
60700;SDS011;46541;49.894;10.886;2022-12-10T00:06:24;37.55;;;18.65;;
60700;SDS011;46541;49.894;10.886;2022-12-10T00:08:54;42.10;;;18.88;;
60700;SDS011;46541;49.894;10.886;2022-12-10T00:11:22;32.05;;;18.42;;
60700;SDS011;46541;49.894;10.886;2022-12-10T00:13:49;36.60;;;18.98;;
60700;SDS011;46541;49.894;10.886;2022-12-10T00:16:18;36.47;;;19.90;;
60700;SDS011;46541;49.894;10.886;2022-12-10T00:18:46;35.85;;;18.52;;
60700;SDS011;46541;49.894;10.886;2022-12-10T00:21:15;38.17;;;20.27;;
60700;SDS011;46541;49.894;10.886;2022-12-10T00:23:44;34.95;;;19.05;;
60700;SDS011;46541;49.894;10.886;2022-12-10T00:26:19;36.92;;;19.25;;
60700;SDS011;46541;49.894;10.886;2022-12-10T00:28:50;37.95;;;19.23;;
60700;SDS011;46541;49.894;10.886;2022-12-10T00:31:20;37.35;;;18.95;;
60700;SDS011;46541;49.894;10.886;2022-12-10T00:33:48;33.65;;;18.13;;
60700;SDS011;46541;49.894;10.886;2022-12-10T00:36:48;34.65;;;18.33;;
60700;SDS011;46541;49.894;10.886;2022-12-10T00:39:13;41.83;;;22.42;;
60700;SDS011;46541;49.894;10.886;2022-12-10T00:41:45;36.85;;;20.05;;
60700;SDS011;46541;49.894;10.886;2022-12-10T00:44:12;34.50;;;17.40;;
60700;SDS011;46541;49.894;10.886;2022-12-10T00:46:40;35.30;;;17.85;;
60700;SDS011;46541;49.894;10.886;2022-12-10T00:49:07;33.08;;;17.65;;
60700;SDS011;46541;49.894;10.886;2022-12-10T00:51:34;35.50;;;19.17;;
60700;SDS011;46541;49.894;10.886;2022-12-10T00:54:00;37.67;;;19.15;;
60700;SDS011;46541;49.894;10.886;2022-12-10T00:56:29;36.65;;;19.23;;
60700;SDS011;46541;49.894;10.886;2022-12-10T00:58:58;31.83;;;18.02;;
60700;SDS011;46541;49.894;10.886;2022-12-10T01:01:39;37.50;;;17.20;;
60700;SDS011;46541;49.894;10.886;2022-12-10T01:04:09;35.15;;;18.65;;
60700;SDS011;46541;49.894;10.886;2022-12-10T01:06:42;34.08;;;18.90;;
60700;SDS011;46541;49.894;10.886;2022-12-10T01:09:11;36.67;;;18.48;;
60700;SDS011;46541;49.894;10.886;2022-12-10T01:11:40;38.65;;;18.38;;
60700;SDS011;46541;49.894;10.886;2022-12-10T01:14:10;35.65;;;17.65;;
60700;SDS011;46541;49.894;10.886;2022-12-10T01:16:38;36.33;;;19.38;;
60700;SDS011;46541;49.894;10.886;2022-12-10T01:19:05;33.88;;;18.08;;
60700;SDS011;46541;49.894;10.886;2022-12-10T01:21:32;37.63;;;19.55;;
60700;SDS011;46541;49.894;10.886;2022-12-10T01:23:59;36.30;;;18.27;;
60700;SDS011;46541;49.894;10.886;2022-12-10T01:26:27;37.30;;;19.42;;
60700;SDS011;46541;49.894;10.886;2022-12-10T01:28:56;43.28;;;20.85;;
60700;SDS011;46541;49.894;10.886;2022-12-10T01:31:24;40.95;;;20.33;;
60700;SDS011;46541;49.894;10.886;2022-12-10T01:33:58;34.17;;;18.75;;
60700;SDS011;46541;49.894;10.886;2022-12-10T01:36:30;32.05;;;18.67;;
60700;SDS011;46541;49.894;10.886;2022-12-10T01:39:03;34.70;;;19.42;;
60700;SDS011;46541;49.894;10.886;2022-12-10T01:41:39;37.65;;;19.67;;
60700;SDS011;46541;49.894;10.886;2022-12-10T01:46:42;32.40;;;18.35;;
60700;SDS011;46541;49.894;10.886;2022-12-10T01:49:12;35.35;;;18.73;;
60700;SDS011;46541;49.894;10.886;2022-12-10T01:51:41;30.88;;;16.65;;
60700;SDS011;46541;49.894;10.886;2022-12-10T01:54:20;32.20;;;17.20;;
60700;SDS011;46541;49.894;10.886;2022-12-10T01:57:12;32.53;;;17.55;;
60700;SDS011;46541;49.894;10.886;2022-12-10T01:59:41;30.73;;;16.58;;
60700;SDS011;46541;49.894;10.886;2022-12-10T02:05:20;32.78;;;16.95;;
60700;SDS011;46541;49.894;10.886;2022-12-10T02:07:59;28.50;;;16.05;;
60700;SDS011;46541;49.894;10.886;2022-12-10T02:16:09;35.15;;;17.33;;
60700;SDS011;46541;49.894;10.886;2022-12-10T02:18:51;29.38;;;16.52;;
60700;SDS011;46541;49.894;10.886;2022-12-10T02:21:40;29.27;;;16.50;;
60700;SDS011;46541;49.894;10.886;2022-12-10T02:24:09;28.25;;;16.13;;
60700;SDS011;46541;49.894;10.886;2022-12-10T02:26:49;33.53;;;17.88;;
60700;SDS011;46541;49.894;10.886;2022-12-10T02:31:52;29.02;;;16.65;;
60700;SDS011;46541;49.894;10.886;2022-12-10T02:34:30;27.90;;;15.88;;
60700;SDS011;46541;49.894;10.886;2022-12-10T02:37:06;31.45;;;16.73;;
60700;SDS011;46541;49.894;10.886;2022-12-10T02:39:40;26.58;;;15.75;;
60700;SDS011;46541;49.894;10.886;2022-12-10T02:42:12;30.60;;;16.73;;
60700;SDS011;46541;49.894;10.886;2022-12-10T02:44:41;28.08;;;16.63;;
60700;SDS011;46541;49.894;10.886;2022-12-10T02:47:09;28.65;;;16.67;;
60700;SDS011;46541;49.894;10.886;2022-12-10T02:49:37;30.67;;;15.95;;
60700;SDS011;46541;49.894;10.886;2022-12-10T02:52:08;39.10;;;17.90;;
60700;SDS011;46541;49.894;10.886;2022-12-10T02:54:46;31.90;;;17.92;;
60700;SDS011;46541;49.894;10.886;2022-12-10T02:57:31;30.13;;;16.73;;
60700;SDS011;46541;49.894;10.886;2022-12-10T03:05:45;28.77;;;15.48;;
60700;SDS011;46541;49.894;10.886;2022-12-10T03:08:14;31.45;;;17.25;;
60700;SDS011;46541;49.894;10.886;2022-12-10T03:13:37;28.40;;;15.40;;
60700;SDS011;46541;49.894;10.886;2022-12-10T03:16:09;30.35;;;16.02;;
60700;SDS011;46541;49.894;10.886;2022-12-10T03:18:37;28.23;;;15.38;;
60700;SDS011;46541;49.894;10.886;2022-12-10T03:21:05;26.63;;;15.25;;
60700;SDS011;46541;49.894;10.886;2022-12-10T03:23:33;25.98;;;13.77;;
60700;SDS011;46541;49.894;10.886;2022-12-10T03:26:03;29.35;;;14.48;;
60700;SDS011;46541;49.894;10.886;2022-12-10T03:28:32;27.00;;;14.27;;
60700;SDS011;46541;49.894;10.886;2022-12-10T03:31:03;26.38;;;14.45;;
60700;SDS011;46541;49.894;10.886;2022-12-10T03:33:31;26.75;;;14.27;;
60700;SDS011;46541;49.894;10.886;2022-12-10T03:35:58;27.65;;;13.85;;
60700;SDS011;46541;49.894;10.886;2022-12-10T03:38:26;24.95;;;14.30;;
60700;SDS011;46541;49.894;10.886;2022-12-10T03:40:53;25.10;;;14.55;;
60700;SDS011;46541;49.894;10.886;2022-12-10T03:43:21;25.48;;;13.63;;
60700;SDS011;46541;49.894;10.886;2022-12-10T03:45:48;28.88;;;14.50;;
60700;SDS011;46541;49.894;10.886;2022-12-10T03:48:15;24.45;;;13.75;;
60700;SDS011;46541;49.894;10.886;2022-12-10T03:50:41;21.70;;;13.43;;
60700;SDS011;46541;49.894;10.886;2022-12-10T03:53:08;24.27;;;13.55;;
60700;SDS011;46541;49.894;10.886;2022-12-10T03:55:35;22.75;;;13.18;;
60700;SDS011;46541;49.894;10.886;2022-12-10T03:58:01;26.33;;;13.73;;
60700;SDS011;46541;49.894;10.886;2022-12-10T04:00:28;23.13;;;13.75;;
60700;SDS011;46541;49.894;10.886;2022-12-10T04:02:55;28.48;;;16.60;;
60700;SDS011;46541;49.894;10.886;2022-12-10T04:05:22;23.35;;;14.18;;
60700;SDS011;46541;49.894;10.886;2022-12-10T04:07:48;23.38;;;14.80;;
60700;SDS011;46541;49.894;10.886;2022-12-10T04:10:15;29.02;;;15.93;;
60700;SDS011;46541;49.894;10.886;2022-12-10T04:12:42;23.88;;;13.45;;
60700;SDS011;46541;49.894;10.886;2022-12-10T04:15:09;30.92;;;17.10;;
60700;SDS011;46541;49.894;10.886;2022-12-10T04:17:54;23.75;;;13.95;;
60700;SDS011;46541;49.894;10.886;2022-12-10T04:20:21;31.33;;;16.17;;
60700;SDS011;46541;49.894;10.886;2022-12-10T04:23:07;28.27;;;16.42;;
60700;SDS011;46541;49.894;10.886;2022-12-10T04:25:52;26.00;;;14.80;;
60700;SDS011;46541;49.894;10.886;2022-12-10T04:28:38;27.92;;;14.90;;
60700;SDS011;46541;49.894;10.886;2022-12-10T04:31:04;27.08;;;14.30;;
60700;SDS011;46541;49.894;10.886;2022-12-10T04:33:31;26.25;;;15.48;;
60700;SDS011;46541;49.894;10.886;2022-12-10T04:35:58;30.27;;;15.30;;
60700;SDS011;46541;49.894;10.886;2022-12-10T04:38:25;30.63;;;17.85;;
60700;SDS011;46541;49.894;10.886;2022-12-10T04:40:51;28.13;;;16.27;;
60700;SDS011;46541;49.894;10.886;2022-12-10T04:43:18;28.88;;;16.02;;
60700;SDS011;46541;49.894;10.886;2022-12-10T04:45:45;27.48;;;16.35;;
60700;SDS011;46541;49.894;10.886;2022-12-10T04:48:12;28.38;;;16.17;;
60700;SDS011;46541;49.894;10.886;2022-12-10T04:50:39;29.15;;;16.30;;
60700;SDS011;46541;49.894;10.886;2022-12-10T04:53:06;35.85;;;18.42;;
60700;SDS011;46541;49.894;10.886;2022-12-10T04:55:33;28.20;;;16.05;;
60700;SDS011;46541;49.894;10.886;2022-12-10T04:57:59;29.27;;;17.17;;
60700;SDS011;46541;49.894;10.886;2022-12-10T05:00:26;31.65;;;16.52;;
60700;SDS011;46541;49.894;10.886;2022-12-10T05:02:53;32.65;;;16.58;;
60700;SDS011;46541;49.894;10.886;2022-12-10T05:05:19;28.80;;;16.00;;
60700;SDS011;46541;49.894;10.886;2022-12-10T05:07:46;32.40;;;17.25;;
60700;SDS011;46541;49.894;10.886;2022-12-10T05:10:13;27.20;;;15.90;;
60700;SDS011;46541;49.894;10.886;2022-12-10T05:12:40;31.40;;;16.95;;
60700;SDS011;46541;49.894;10.886;2022-12-10T05:15:07;35.17;;;17.50;;
60700;SDS011;46541;49.894;10.886;2022-12-10T05:17:34;30.52;;;16.05;;
60700;SDS011;46541;49.894;10.886;2022-12-10T05:20:01;31.48;;;15.95;;
60700;SDS011;46541;49.894;10.886;2022-12-10T05:22:28;30.05;;;17.08;;
60700;SDS011;46541;49.894;10.886;2022-12-10T05:25:13;27.63;;;16.60;;
60700;SDS011;46541;49.894;10.886;2022-12-10T05:27:40;29.15;;;16.98;;
60700;SDS011;46541;49.894;10.886;2022-12-10T05:30:07;30.77;;;15.88;;
60700;SDS011;46541;49.894;10.886;2022-12-10T05:32:36;30.02;;;15.90;;
60700;SDS011;46541;49.894;10.886;2022-12-10T05:35:03;31.17;;;16.52;;
60700;SDS011;46541;49.894;10.886;2022-12-10T05:37:30;35.90;;;18.13;;
60700;SDS011;46541;49.894;10.886;2022-12-10T05:39:57;32.70;;;17.52;;
60700;SDS011;46541;49.894;10.886;2022-12-10T05:42:24;31.05;;;17.08;;
60700;SDS011;46541;49.894;10.886;2022-12-10T05:44:50;33.70;;;18.63;;
60700;SDS011;46541;49.894;10.886;2022-12-10T05:47:17;31.77;;;18.02;;
60700;SDS011;46541;49.894;10.886;2022-12-10T05:49:44;30.27;;;17.08;;
60700;SDS011;46541;49.894;10.886;2022-12-10T05:52:17;29.65;;;17.27;;
60700;SDS011;46541;49.894;10.886;2022-12-10T05:54:44;32.53;;;17.67;;
60700;SDS011;46541;49.894;10.886;2022-12-10T05:57:10;32.67;;;17.50;;
60700;SDS011;46541;49.894;10.886;2022-12-10T05:59:37;31.75;;;17.48;;
60700;SDS011;46541;49.894;10.886;2022-12-10T06:02:04;29.02;;;16.17;;
60700;SDS011;46541;49.894;10.886;2022-12-10T06:04:30;29.17;;;15.10;;
60700;SDS011;46541;49.894;10.886;2022-12-10T06:06:57;24.90;;;14.23;;
60700;SDS011;46541;49.894;10.886;2022-12-10T06:09:24;25.73;;;15.80;;
60700;SDS011;46541;49.894;10.886;2022-12-10T06:11:51;31.58;;;15.73;;
60700;SDS011;46541;49.894;10.886;2022-12-10T06:14:17;25.38;;;15.38;;
60700;SDS011;46541;49.894;10.886;2022-12-10T06:16:44;24.83;;;14.30;;
60700;SDS011;46541;49.894;10.886;2022-12-10T06:19:11;25.85;;;15.18;;
60700;SDS011;46541;49.894;10.886;2022-12-10T06:21:37;28.88;;;15.82;;
60700;SDS011;46541;49.894;10.886;2022-12-10T06:24:04;28.02;;;15.85;;
60700;SDS011;46541;49.894;10.886;2022-12-10T06:26:32;26.02;;;14.68;;
60700;SDS011;46541;49.894;10.886;2022-12-10T06:28:58;28.77;;;15.65;;
60700;SDS011;46541;49.894;10.886;2022-12-10T06:31:26;27.08;;;16.05;;
60700;SDS011;46541;49.894;10.886;2022-12-10T06:33:53;29.33;;;16.30;;
60700;SDS011;46541;49.894;10.886;2022-12-10T06:36:20;27.08;;;16.15;;
60700;SDS011;46541;49.894;10.886;2022-12-10T06:38:47;29.98;;;15.85;;
60700;SDS011;46541;49.894;10.886;2022-12-10T06:41:15;32.00;;;16.52;;
60700;SDS011;46541;49.894;10.886;2022-12-10T06:43:43;32.85;;;16.73;;
60700;SDS011;46541;49.894;10.886;2022-12-10T06:46:11;34.90;;;18.25;;
60700;SDS011;46541;49.894;10.886;2022-12-10T06:48:40;36.28;;;17.83;;
60700;SDS011;46541;49.894;10.886;2022-12-10T06:51:08;29.98;;;17.73;;
60700;SDS011;46541;49.894;10.886;2022-12-10T06:53:36;34.20;;;18.13;;
60700;SDS011;46541;49.894;10.886;2022-12-10T06:56:07;36.13;;;21.35;;
60700;SDS011;46541;49.894;10.886;2022-12-10T06:58:40;37.05;;;19.83;;
60700;SDS011;46541;49.894;10.886;2022-12-10T07:01:09;36.72;;;19.27;;
60700;SDS011;46541;49.894;10.886;2022-12-10T07:03:38;39.05;;;19.70;;
60700;SDS011;46541;49.894;10.886;2022-12-10T07:06:09;36.60;;;19.02;;
60700;SDS011;46541;49.894;10.886;2022-12-10T07:08:37;34.17;;;18.58;;
60700;SDS011;46541;49.894;10.886;2022-12-10T07:11:05;39.05;;;20.10;;
60700;SDS011;46541;49.894;10.886;2022-12-10T07:13:33;33.38;;;18.80;;
60700;SDS011;46541;49.894;10.886;2022-12-10T07:16:00;36.28;;;19.27;;
60700;SDS011;46541;49.894;10.886;2022-12-10T07:18:27;36.03;;;19.30;;
60700;SDS011;46541;49.894;10.886;2022-12-10T07:20:54;33.95;;;19.90;;
60700;SDS011;46541;49.894;10.886;2022-12-10T07:23:21;32.15;;;18.42;;
60700;SDS011;46541;49.894;10.886;2022-12-10T07:25:48;40.47;;;19.92;;
60700;SDS011;46541;49.894;10.886;2022-12-10T07:28:14;33.90;;;18.98;;
60700;SDS011;46541;49.894;10.886;2022-12-10T07:30:41;36.33;;;18.40;;
60700;SDS011;46541;49.894;10.886;2022-12-10T07:33:11;35.10;;;19.02;;
60700;SDS011;46541;49.894;10.886;2022-12-10T07:35:38;32.63;;;18.02;;
60700;SDS011;46541;49.894;10.886;2022-12-10T07:43:07;74.85;;;40.50;;
60700;SDS011;46541;49.894;10.886;2022-12-10T07:45:33;48.10;;;26.13;;
60700;SDS011;46541;49.894;10.886;2022-12-10T07:48:00;36.70;;;21.13;;
60700;SDS011;46541;49.894;10.886;2022-12-10T07:50:27;40.25;;;22.10;;
60700;SDS011;46541;49.894;10.886;2022-12-10T07:52:53;36.35;;;19.65;;
60700;SDS011;46541;49.894;10.886;2022-12-10T07:55:20;37.70;;;20.30;;
60700;SDS011;46541;49.894;10.886;2022-12-10T07:57:47;36.67;;;20.05;;
60700;SDS011;46541;49.894;10.886;2022-12-10T08:00:14;41.35;;;24.92;;
60700;SDS011;46541;49.894;10.886;2022-12-10T08:02:41;40.33;;;22.88;;
60700;SDS011;46541;49.894;10.886;2022-12-10T08:05:07;42.83;;;22.70;;
60700;SDS011;46541;49.894;10.886;2022-12-10T08:07:35;46.80;;;25.15;;
60700;SDS011;46541;49.894;10.886;2022-12-10T08:10:02;65.47;;;38.33;;
60700;SDS011;46541;49.894;10.886;2022-12-10T08:12:29;55.05;;;32.15;;
60700;SDS011;46541;49.894;10.886;2022-12-10T08:14:56;40.72;;;23.83;;
60700;SDS011;46541;49.894;10.886;2022-12-10T08:17:22;35.63;;;20.38;;
60700;SDS011;46541;49.894;10.886;2022-12-10T08:19:49;42.88;;;24.42;;
60700;SDS011;46541;49.894;10.886;2022-12-10T08:22:16;34.80;;;20.55;;
60700;SDS011;46541;49.894;10.886;2022-12-10T08:24:43;35.13;;;20.38;;
60700;SDS011;46541;49.894;10.886;2022-12-10T08:27:10;37.78;;;22.10;;
60700;SDS011;46541;49.894;10.886;2022-12-10T08:29:38;35.90;;;21.08;;
60700;SDS011;46541;49.894;10.886;2022-12-10T08:32:05;39.33;;;23.08;;
60700;SDS011;46541;49.894;10.886;2022-12-10T08:34:31;36.97;;;21.52;;
60700;SDS011;46541;49.894;10.886;2022-12-10T08:36:58;37.83;;;19.55;;
60700;SDS011;46541;49.894;10.886;2022-12-10T08:39:25;40.00;;;22.00;;
60700;SDS011;46541;49.894;10.886;2022-12-10T08:41:52;41.58;;;22.23;;
60700;SDS011;46541;49.894;10.886;2022-12-10T08:44:18;37.10;;;21.75;;
60700;SDS011;46541;49.894;10.886;2022-12-10T08:46:45;39.78;;;21.75;;
60700;SDS011;46541;49.894;10.886;2022-12-10T08:49:12;36.88;;;22.20;;
60700;SDS011;46541;49.894;10.886;2022-12-10T08:51:39;39.08;;;22.35;;
60700;SDS011;46541;49.894;10.886;2022-12-10T08:54:06;36.53;;;21.00;;
60700;SDS011;46541;49.894;10.886;2022-12-10T08:56:32;38.20;;;20.40;;
60700;SDS011;46541;49.894;10.886;2022-12-10T08:58:59;36.95;;;21.77;;
60700;SDS011;46541;49.894;10.886;2022-12-10T09:01:27;36.80;;;20.45;;
60700;SDS011;46541;49.894;10.886;2022-12-10T09:03:54;44.75;;;26.70;;
60700;SDS011;46541;49.894;10.886;2022-12-10T09:06:21;34.55;;;20.23;;
60700;SDS011;46541;49.894;10.886;2022-12-10T09:08:50;36.08;;;20.33;;
60700;SDS011;46541;49.894;10.886;2022-12-10T09:11:18;38.13;;;22.40;;
60700;SDS011;46541;49.894;10.886;2022-12-10T09:13:47;37.55;;;19.85;;
60700;SDS011;46541;49.894;10.886;2022-12-10T09:16:14;34.95;;;20.23;;
60700;SDS011;46541;49.894;10.886;2022-12-10T09:18:46;35.55;;;20.10;;
60700;SDS011;46541;49.894;10.886;2022-12-10T09:21:14;35.88;;;18.95;;
60700;SDS011;46541;49.894;10.886;2022-12-10T09:23:42;106.28;;;47.83;;
60700;SDS011;46541;49.894;10.886;2022-12-10T09:26:10;55.63;;;26.63;;
60700;SDS011;46541;49.894;10.886;2022-12-10T09:28:39;42.90;;;23.10;;
60700;SDS011;46541;49.894;10.886;2022-12-10T09:31:07;34.50;;;20.58;;
60700;SDS011;46541;49.894;10.886;2022-12-10T09:33:45;32.45;;;19.05;;
60700;SDS011;46541;49.894;10.886;2022-12-10T09:36:16;38.38;;;19.77;;
60700;SDS011;46541;49.894;10.886;2022-12-10T09:38:44;32.42;;;19.85;;
60700;SDS011;46541;49.894;10.886;2022-12-10T09:43:59;31.77;;;18.47;;
60700;SDS011;46541;49.894;10.886;2022-12-10T09:52:11;39.55;;;19.63;;
60700;SDS011;46541;49.894;10.886;2022-12-10T09:55:00;41.85;;;22.33;;
60700;SDS011;46541;49.894;10.886;2022-12-10T09:57:31;37.75;;;21.02;;
60700;SDS011;46541;49.894;10.886;2022-12-10T10:02:37;38.30;;;20.80;;
60700;SDS011;46541;49.894;10.886;2022-12-10T10:07:32;30.70;;;18.15;;
60700;SDS011;46541;49.894;10.886;2022-12-10T10:10:06;30.83;;;17.90;;
60700;SDS011;46541;49.894;10.886;2022-12-10T10:12:42;32.28;;;19.38;;
60700;SDS011;46541;49.894;10.886;2022-12-10T10:15:13;32.72;;;19.00;;
60700;SDS011;46541;49.894;10.886;2022-12-10T10:17:42;29.08;;;17.42;;
60700;SDS011;46541;49.894;10.886;2022-12-10T10:20:12;40.15;;;18.83;;
60700;SDS011;46541;49.894;10.886;2022-12-10T10:22:40;35.38;;;19.52;;
60700;SDS011;46541;49.894;10.886;2022-12-10T10:25:14;37.25;;;18.55;;
60700;SDS011;46541;49.894;10.886;2022-12-10T10:35:19;35.65;;;18.85;;
60700;SDS011;46541;49.894;10.886;2022-12-10T10:37:46;29.25;;;17.65;;
60700;SDS011;46541;49.894;10.886;2022-12-10T10:40:24;37.83;;;21.13;;
60700;SDS011;46541;49.894;10.886;2022-12-10T10:42:52;32.45;;;19.10;;
60700;SDS011;46541;49.894;10.886;2022-12-10T10:48:03;33.72;;;18.83;;
60700;SDS011;46541;49.894;10.886;2022-12-10T10:50:42;35.42;;;20.48;;
60700;SDS011;46541;49.894;10.886;2022-12-10T10:53:30;39.00;;;22.77;;
60700;SDS011;46541;49.894;10.886;2022-12-10T10:56:07;39.83;;;22.23;;
60700;SDS011;46541;49.894;10.886;2022-12-10T11:01:24;37.58;;;22.02;;
60700;SDS011;46541;49.894;10.886;2022-12-10T11:03:57;39.88;;;21.50;;
60700;SDS011;46541;49.894;10.886;2022-12-10T11:06:25;46.22;;;25.35;;
60700;SDS011;46541;49.894;10.886;2022-12-10T11:08:56;38.15;;;22.40;;
60700;SDS011;46541;49.894;10.886;2022-12-10T11:11:34;47.53;;;24.10;;
60700;SDS011;46541;49.894;10.886;2022-12-10T11:14:13;48.88;;;24.92;;
60700;SDS011;46541;49.894;10.886;2022-12-10T11:16:40;42.83;;;24.45;;
60700;SDS011;46541;49.894;10.886;2022-12-10T11:19:07;40.47;;;20.80;;
60700;SDS011;46541;49.894;10.886;2022-12-10T11:21:46;36.17;;;20.45;;
60700;SDS011;46541;49.894;10.886;2022-12-10T11:24:15;36.97;;;20.25;;
60700;SDS011;46541;49.894;10.886;2022-12-10T11:26:58;51.00;;;24.27;;
60700;SDS011;46541;49.894;10.886;2022-12-10T11:38:32;37.08;;;20.48;;
60700;SDS011;46541;49.894;10.886;2022-12-10T11:46:57;34.88;;;19.00;;
60700;SDS011;46541;49.894;10.886;2022-12-10T11:50:11;33.47;;;18.52;;
60700;SDS011;46541;49.894;10.886;2022-12-10T11:52:40;37.08;;;18.77;;
60700;SDS011;46541;49.894;10.886;2022-12-10T11:55:27;30.02;;;17.75;;
60700;SDS011;46541;49.894;10.886;2022-12-10T11:58:11;27.92;;;16.77;;
60700;SDS011;46541;49.894;10.886;2022-12-10T12:01:10;27.88;;;14.68;;
60700;SDS011;46541;49.894;10.886;2022-12-10T12:17:52;22.52;;;11.32;;
60700;SDS011;46541;49.894;10.886;2022-12-10T12:20:46;21.67;;;12.15;;
60700;SDS011;46541;49.894;10.886;2022-12-10T12:23:21;21.02;;;12.02;;
60700;SDS011;46541;49.894;10.886;2022-12-10T12:25:56;19.63;;;11.43;;
60700;SDS011;46541;49.894;10.886;2022-12-10T12:28:36;20.00;;;12.00;;
60700;SDS011;46541;49.894;10.886;2022-12-10T12:34:27;21.38;;;12.52;;
60700;SDS011;46541;49.894;10.886;2022-12-10T12:45:13;20.50;;;11.65;;
60700;SDS011;46541;49.894;10.886;2022-12-10T12:50:41;33.42;;;15.52;;
60700;SDS011;46541;49.894;10.886;2022-12-10T12:53:15;19.02;;;10.95;;
60700;SDS011;46541;49.894;10.886;2022-12-10T12:58:25;18.80;;;9.93;;
60700;SDS011;46541;49.894;10.886;2022-12-10T13:03:48;68.68;;;27.05;;
60700;SDS011;46541;49.894;10.886;2022-12-10T13:09:31;21.02;;;10.77;;
60700;SDS011;46541;49.894;10.886;2022-12-10T13:11:44;17.92;;;10.73;;
60700;SDS011;46541;49.894;10.886;2022-12-10T13:15:11;25.63;;;12.77;;
60700;SDS011;46541;49.894;10.886;2022-12-10T13:22:57;23.20;;;11.95;;
60700;SDS011;46541;49.894;10.886;2022-12-10T13:28:51;21.83;;;12.55;;
60700;SDS011;46541;49.894;10.886;2022-12-10T13:33:45;20.30;;;11.45;;
60700;SDS011;46541;49.894;10.886;2022-12-10T13:36:12;20.75;;;11.27;;
60700;SDS011;46541;49.894;10.886;2022-12-10T13:38:40;26.65;;;13.15;;
60700;SDS011;46541;49.894;10.886;2022-12-10T13:41:20;25.08;;;12.18;;
60700;SDS011;46541;49.894;10.886;2022-12-10T13:44:24;22.55;;;12.15;;
60700;SDS011;46541;49.894;10.886;2022-12-10T13:52:26;26.67;;;12.85;;
60700;SDS011;46541;49.894;10.886;2022-12-10T14:11:21;20.02;;;10.45;;
60700;SDS011;46541;49.894;10.886;2022-12-10T14:14:00;22.35;;;11.50;;
60700;SDS011;46541;49.894;10.886;2022-12-10T14:16:29;39.33;;;18.00;;
60700;SDS011;46541;49.894;10.886;2022-12-10T14:19:01;24.58;;;13.27;;
60700;SDS011;46541;49.894;10.886;2022-12-10T14:21:32;19.08;;;10.23;;
60700;SDS011;46541;49.894;10.886;2022-12-10T14:24:03;20.20;;;11.27;;
60700;SDS011;46541;49.894;10.886;2022-12-10T14:26:31;15.80;;;8.90;;
60700;SDS011;46541;49.894;10.886;2022-12-10T14:31:42;19.27;;;10.63;;
60700;SDS011;46541;49.894;10.886;2022-12-10T14:34:14;19.92;;;9.77;;
60700;SDS011;46541;49.894;10.886;2022-12-10T14:36:48;18.25;;;10.52;;
60700;SDS011;46541;49.894;10.886;2022-12-10T14:41:47;20.63;;;10.57;;
60700;SDS011;46541;49.894;10.886;2022-12-10T14:44:16;16.20;;;9.52;;
60700;SDS011;46541;49.894;10.886;2022-12-10T14:46:46;14.18;;;8.60;;
60700;SDS011;46541;49.894;10.886;2022-12-10T14:49:15;16.48;;;9.00;;
60700;SDS011;46541;49.894;10.886;2022-12-10T14:51:47;17.13;;;9.75;;
60700;SDS011;46541;49.894;10.886;2022-12-10T14:54:25;21.70;;;11.00;;
60700;SDS011;46541;49.894;10.886;2022-12-10T14:56:52;22.48;;;10.63;;
60700;SDS011;46541;49.894;10.886;2022-12-10T14:59:22;16.80;;;10.15;;
60700;SDS011;46541;49.894;10.886;2022-12-10T15:02:20;19.60;;;10.27;;
60700;SDS011;46541;49.894;10.886;2022-12-10T15:04:52;21.40;;;10.77;;
60700;SDS011;46541;49.894;10.886;2022-12-10T15:07:20;17.67;;;9.88;;
60700;SDS011;46541;49.894;10.886;2022-12-10T15:09:50;21.20;;;12.20;;
60700;SDS011;46541;49.894;10.886;2022-12-10T15:13:02;23.45;;;13.02;;
60700;SDS011;46541;49.894;10.886;2022-12-10T15:15:34;21.80;;;11.57;;
60700;SDS011;46541;49.894;10.886;2022-12-10T15:20:37;24.00;;;13.68;;
60700;SDS011;46541;49.894;10.886;2022-12-10T15:23:18;21.65;;;12.60;;
60700;SDS011;46541;49.894;10.886;2022-12-10T15:28:28;23.10;;;12.63;;
60700;SDS011;46541;49.894;10.886;2022-12-10T15:31:09;21.23;;;11.95;;
60700;SDS011;46541;49.894;10.886;2022-12-10T15:33:39;22.38;;;11.73;;
60700;SDS011;46541;49.894;10.886;2022-12-10T15:36:23;21.00;;;11.30;;
60700;SDS011;46541;49.894;10.886;2022-12-10T15:38:50;22.13;;;11.77;;
60700;SDS011;46541;49.894;10.886;2022-12-10T15:41:21;20.30;;;11.18;;
60700;SDS011;46541;49.894;10.886;2022-12-10T15:44:00;21.75;;;12.05;;
60700;SDS011;46541;49.894;10.886;2022-12-10T15:46:29;22.13;;;12.50;;
60700;SDS011;46541;49.894;10.886;2022-12-10T15:48:56;21.10;;;11.77;;
60700;SDS011;46541;49.894;10.886;2022-12-10T15:51:23;22.13;;;12.52;;
60700;SDS011;46541;49.894;10.886;2022-12-10T15:53:51;28.98;;;14.20;;
60700;SDS011;46541;49.894;10.886;2022-12-10T15:56:18;24.67;;;13.02;;
60700;SDS011;46541;49.894;10.886;2022-12-10T15:58:45;25.23;;;15.02;;
60700;SDS011;46541;49.894;10.886;2022-12-10T16:01:12;26.13;;;13.82;;
60700;SDS011;46541;49.894;10.886;2022-12-10T16:03:40;26.40;;;13.52;;
60700;SDS011;46541;49.894;10.886;2022-12-10T16:06:07;25.95;;;14.90;;
60700;SDS011;46541;49.894;10.886;2022-12-10T16:08:34;29.73;;;15.93;;
60700;SDS011;46541;49.894;10.886;2022-12-10T16:11:03;57.92;;;28.70;;
60700;SDS011;46541;49.894;10.886;2022-12-10T16:13:40;35.40;;;20.40;;
60700;SDS011;46541;49.894;10.886;2022-12-10T16:16:14;39.35;;;20.10;;
60700;SDS011;46541;49.894;10.886;2022-12-10T16:18:41;38.60;;;18.83;;
60700;SDS011;46541;49.894;10.886;2022-12-10T16:21:08;89.32;;;40.42;;
60700;SDS011;46541;49.894;10.886;2022-12-10T16:23:35;100.60;;;42.47;;
60700;SDS011;46541;49.894;10.886;2022-12-10T16:26:04;70.95;;;32.53;;
60700;SDS011;46541;49.894;10.886;2022-12-10T16:28:43;32.58;;;15.90;;
60700;SDS011;46541;49.894;10.886;2022-12-10T16:31:11;29.77;;;15.50;;
60700;SDS011;46541;49.894;10.886;2022-12-10T16:33:40;28.35;;;14.95;;
60700;SDS011;46541;49.894;10.886;2022-12-10T16:36:09;36.92;;;19.08;;
60700;SDS011;46541;49.894;10.886;2022-12-10T16:38:37;55.58;;;27.52;;
60700;SDS011;46541;49.894;10.886;2022-12-10T16:44:04;39.65;;;22.25;;
60700;SDS011;46541;49.894;10.886;2022-12-10T16:46:30;37.95;;;20.70;;
60700;SDS011;46541;49.894;10.886;2022-12-10T16:48:57;29.08;;;15.90;;
60700;SDS011;46541;49.894;10.886;2022-12-10T16:51:26;28.75;;;15.63;;
60700;SDS011;46541;49.894;10.886;2022-12-10T16:53:57;32.78;;;16.75;;
60700;SDS011;46541;49.894;10.886;2022-12-10T16:56:24;37.95;;;20.30;;
60700;SDS011;46541;49.894;10.886;2022-12-10T16:58:51;27.70;;;14.93;;
60700;SDS011;46541;49.894;10.886;2022-12-10T17:01:19;25.83;;;15.20;;